TRN weather

Turin Airport
Torino, Piedmont, Italy

Public forecast

Using degrees Celsius for public forecast. Weather courtesy of forecast.io.

Current aviation weather report (METAR) for Turin Airport

Retrieved 2019/11/15 09:20 UTC (0 seconds ago):

LIMF 150920Z 30003KT 250V330 9999 SCT008 BKN025 05/04 Q1001

Aviation forecast (TAF) for Turin Airport

Retrieved 2019/11/15 06:00 UTC (3 hours ago):

TAF LIMF 150500Z 1506/1606 VRB05KT 9999 SCT025 BKN050 BECMG 1520/1522 4000 RA BKN012 OVC040 TEMPO 1522/1602 2000 SHRA